createdAt,value
2022-10-23T00:01:40.088Z,6.80
2022-10-23T00:04:11.646Z,7.60
2022-10-23T00:06:40.184Z,7.20
2022-10-23T00:09:10.083Z,6.75
2022-10-23T00:11:38.687Z,6.78
2022-10-23T00:14:10.276Z,6.78
2022-10-23T00:16:39.075Z,7.60
2022-10-23T00:19:08.433Z,6.50
2022-10-23T00:21:37.078Z,7.03
2022-10-23T00:24:06.012Z,6.60
2022-10-23T00:26:34.462Z,7.05
2022-10-23T00:29:02.799Z,7.57
2022-10-23T00:31:33.349Z,6.90
2022-10-23T00:34:02.002Z,7.20
2022-10-23T00:36:30.413Z,6.60
2022-10-23T00:38:58.754Z,6.65
2022-10-23T00:41:29.356Z,7.45
2022-10-23T00:44:09.880Z,7.47
2022-10-23T00:46:40.833Z,6.30
2022-10-23T00:51:48.051Z,7.53
2022-10-23T00:54:26.594Z,7.65
2022-10-23T00:56:58.089Z,7.40
2022-10-23T00:59:27.339Z,7.43
2022-10-23T01:01:57.480Z,6.80
2022-10-23T01:04:29.542Z,7.72
2022-10-23T01:07:04.747Z,7.10
2022-10-23T01:09:38.448Z,7.78
2022-10-23T01:12:16.595Z,6.95
2022-10-23T01:14:55.063Z,7.65
2022-10-23T01:17:31.572Z,7.60
2022-10-23T01:20:12.566Z,7.28
2022-10-23T01:23:01.870Z,7.10
2022-10-23T01:25:47.631Z,6.90
2022-10-23T01:28:26.112Z,6.95
2022-10-23T01:30:58.411Z,7.32
2022-10-23T01:33:36.280Z,7.68
2022-10-23T01:36:08.661Z,7.30
2022-10-23T01:38:42.559Z,7.22
2022-10-23T01:41:29.789Z,7.80
2022-10-23T01:44:05.498Z,7.55
2022-10-23T01:46:37.659Z,6.90
2022-10-23T01:49:12.929Z,7.18
2022-10-23T01:51:46.379Z,7.38
2022-10-23T01:54:16.832Z,8.05
2022-10-23T01:56:48.568Z,7.95
2022-10-23T01:59:24.209Z,7.80
2022-10-23T02:01:55.626Z,8.32
2022-10-23T02:04:29.321Z,8.80
2022-10-23T02:06:58.158Z,9.07
2022-10-23T02:12:04.264Z,8.30
2022-10-23T02:14:45.423Z,8.87
2022-10-23T02:17:21.432Z,8.63
2022-10-23T02:19:56.561Z,9.15
2022-10-23T02:22:30.746Z,9.35
2022-10-23T02:25:06.097Z,9.35
2022-10-23T02:27:40.460Z,9.82
2022-10-23T02:30:15.112Z,10.50
2022-10-23T02:35:21.505Z,9.40
2022-10-23T02:37:56.113Z,10.07
2022-10-23T02:40:33.555Z,10.13
2022-10-23T02:43:05.149Z,9.73
2022-10-23T02:48:20.338Z,10.75
2022-10-23T02:50:56.837Z,10.40
2022-10-23T02:53:35.367Z,9.30
2022-10-23T02:56:10.698Z,9.55
2022-10-23T02:58:44.677Z,9.70
2022-10-23T03:01:18.642Z,10.13
2022-10-23T03:03:52.881Z,10.88
2022-10-23T03:06:21.747Z,10.43
2022-10-23T03:08:55.519Z,10.90
2022-10-23T03:11:27.173Z,11.07
2022-10-23T03:13:57.232Z,11.15
2022-10-23T03:16:27.559Z,10.77
2022-10-23T03:18:56.948Z,10.82
2022-10-23T03:21:25.923Z,11.70
2022-10-23T03:23:55.151Z,11.93
2022-10-23T03:26:31.767Z,9.93
2022-10-23T03:31:30.012Z,10.48
2022-10-23T03:34:04.028Z,12.43
2022-10-23T03:36:34.749Z,11.57
2022-10-23T03:39:05.628Z,11.45
2022-10-23T03:41:34.156Z,11.63
2022-10-23T03:44:02.712Z,11.98
2022-10-23T03:46:32.639Z,12.02
2022-10-23T03:49:01.166Z,12.10
2022-10-23T03:51:29.665Z,12.80
2022-10-23T03:53:59.318Z,11.80
2022-10-23T03:56:28.217Z,12.77
2022-10-23T03:58:56.609Z,11.73
2022-10-23T04:01:27.916Z,12.15
2022-10-23T04:03:58.059Z,11.90
2022-10-23T04:06:27.757Z,11.90
2022-10-23T04:08:58.580Z,12.43
2022-10-23T04:11:27.203Z,13.82
2022-10-23T04:13:55.581Z,13.63
2022-10-23T04:16:25.320Z,13.65
2022-10-23T04:18:56.185Z,12.95
2022-10-23T04:21:26.401Z,11.25
2022-10-23T04:23:56.871Z,12.65
2022-10-23T04:26:25.432Z,12.10
2022-10-23T04:28:53.772Z,13.45
2022-10-23T04:31:22.259Z,12.60
2022-10-23T04:33:51.097Z,12.85
2022-10-23T04:36:34.365Z,11.57
2022-10-23T04:39:13.039Z,12.38
2022-10-23T04:41:41.651Z,11.82
2022-10-23T04:44:10.106Z,13.77
2022-10-23T04:46:40.297Z,12.60
2022-10-23T04:51:53.054Z,13.27
2022-10-23T04:54:41.001Z,12.10
2022-10-23T04:57:32.837Z,12.32
2022-10-23T05:00:04.006Z,13.90
2022-10-23T05:02:40.452Z,13.15
2022-10-23T05:07:55.857Z,13.20
2022-10-23T05:13:18.088Z,12.27
2022-10-23T05:15:46.851Z,13.35
2022-10-23T05:18:21.870Z,13.73
2022-10-23T05:20:53.662Z,13.38
2022-10-23T05:23:27.375Z,12.77
2022-10-23T05:26:03.308Z,14.32
2022-10-23T05:28:58.954Z,12.65
2022-10-23T05:31:27.654Z,13.63
2022-10-23T05:34:03.641Z,13.05
2022-10-23T05:36:33.029Z,13.35
2022-10-23T05:39:03.881Z,13.07
2022-10-23T05:41:33.555Z,12.13
2022-10-23T05:44:03.070Z,13.93
2022-10-23T05:46:57.751Z,13.07
2022-10-23T05:49:44.869Z,12.55
2022-10-23T05:52:22.805Z,12.30
2022-10-23T05:55:19.008Z,12.32
2022-10-23T05:57:50.396Z,11.63
2022-10-23T06:00:25.501Z,12.27
2022-10-23T06:03:11.646Z,11.15
2022-10-23T06:05:50.850Z,11.38
2022-10-23T06:08:24.656Z,11.77
2022-10-23T06:10:56.365Z,10.88
2022-10-23T06:13:24.991Z,11.43
2022-10-23T06:15:53.482Z,11.43
2022-10-23T06:18:27.176Z,11.05
2022-10-23T06:21:02.451Z,11.32
2022-10-23T06:23:32.278Z,11.75
2022-10-23T06:26:40.635Z,10.57
2022-10-23T06:29:12.444Z,11.27
2022-10-23T06:31:45.714Z,10.63
2022-10-23T06:34:14.983Z,10.77
2022-10-23T06:39:40.533Z,10.77
2022-10-23T06:42:19.790Z,10.57
2022-10-23T06:44:57.999Z,10.70
2022-10-23T06:47:56.085Z,10.43
2022-10-23T06:50:43.184Z,10.75
2022-10-23T06:53:19.224Z,9.55
2022-10-23T06:55:55.502Z,10.02
2022-10-23T06:58:26.358Z,9.95
2022-10-23T07:01:03.096Z,10.88
2022-10-23T07:03:32.117Z,9.98
2022-10-23T07:06:02.196Z,10.98
2022-10-23T07:08:30.928Z,11.15
2022-10-23T07:11:04.144Z,9.95
2022-10-23T07:13:35.273Z,9.50
2022-10-23T07:16:25.194Z,10.65
2022-10-23T07:18:59.540Z,9.88
2022-10-23T07:21:29.774Z,10.70
2022-10-23T07:24:09.202Z,10.85
2022-10-23T07:26:41.589Z,10.30
2022-10-23T07:29:11.851Z,10.10
2022-10-23T07:31:40.569Z,10.45
2022-10-23T07:34:29.076Z,12.05
2022-10-23T07:37:33.005Z,9.52
2022-10-23T07:40:04.103Z,9.70
2022-10-23T07:42:37.147Z,10.27
2022-10-23T07:45:08.849Z,10.20
2022-10-23T07:47:41.349Z,10.23
2022-10-23T07:50:11.193Z,10.50
2022-10-23T07:52:39.950Z,10.07
2022-10-23T07:55:13.424Z,9.52
2022-10-23T07:58:08.373Z,9.95
2022-10-23T08:00:43.569Z,11.27
2022-10-23T08:03:20.422Z,11.00
2022-10-23T08:05:49.576Z,10.77
2022-10-23T08:08:18.014Z,10.32
2022-10-23T08:10:50.335Z,10.27
2022-10-23T08:13:25.121Z,9.93
2022-10-23T08:16:02.469Z,11.13
2022-10-23T08:18:51.474Z,12.88
2022-10-23T08:21:21.335Z,10.52
2022-10-23T08:23:54.337Z,10.32
2022-10-23T08:26:23.264Z,11.00
2022-10-23T08:31:23.501Z,10.75
2022-10-23T08:34:09.393Z,10.25
2022-10-23T08:36:39.485Z,10.75
2022-10-23T08:39:08.736Z,10.50
2022-10-23T08:41:43.107Z,11.38
2022-10-23T08:44:24.807Z,11.07
2022-10-23T08:47:04.445Z,10.23
2022-10-23T08:49:55.444Z,11.05
2022-10-23T08:52:31.120Z,11.60
2022-10-23T08:55:06.764Z,12.23
2022-10-23T08:57:43.910Z,10.77
2022-10-23T09:00:16.210Z,12.35
2022-10-23T09:02:49.921Z,12.35
2022-10-23T09:05:20.761Z,11.63
2022-10-23T09:08:10.149Z,12.52
2022-10-23T09:10:59.154Z,15.57
2022-10-23T09:13:50.070Z,11.65
2022-10-23T09:16:30.322Z,12.30
2022-10-23T09:19:00.747Z,10.63
2022-10-23T09:21:30.566Z,12.45
2022-10-23T09:23:58.973Z,12.02
2022-10-23T09:26:27.625Z,11.63
2022-10-23T09:29:10.395Z,11.70
2022-10-23T09:31:59.286Z,13.90
2022-10-23T09:34:33.091Z,14.57
2022-10-23T09:37:04.071Z,13.07
2022-10-23T09:39:35.089Z,12.88
2022-10-23T09:42:22.696Z,12.57
2022-10-23T09:44:54.031Z,12.40
2022-10-23T09:47:45.745Z,13.48
2022-10-23T09:50:23.496Z,11.90
2022-10-23T09:52:56.023Z,12.18
2022-10-23T09:55:26.658Z,12.68
2022-10-23T09:58:01.707Z,13.15
2022-10-23T10:00:34.245Z,12.68
2022-10-23T10:03:05.001Z,13.45
2022-10-23T10:05:39.937Z,13.77
2022-10-23T10:08:22.708Z,13.43
2022-10-23T10:10:54.005Z,12.80
2022-10-23T10:13:37.779Z,13.15
2022-10-23T10:16:12.874Z,13.38
2022-10-23T10:18:44.721Z,12.55
2022-10-23T10:21:22.509Z,12.45
2022-10-23T10:24:05.655Z,12.57
2022-10-23T10:26:43.664Z,12.65
2022-10-23T10:29:30.530Z,13.27
2022-10-23T10:32:13.450Z,13.30
2022-10-23T10:34:53.721Z,13.23
2022-10-23T10:37:45.961Z,13.55
2022-10-23T10:40:25.943Z,13.18
2022-10-23T10:43:25.145Z,14.15
2022-10-23T10:46:33.377Z,12.77
2022-10-23T10:49:10.921Z,13.43
2022-10-23T10:51:49.183Z,15.20
2022-10-23T10:54:39.391Z,13.77
2022-10-23T11:00:38.584Z,13.15
2022-10-23T11:03:25.715Z,12.88
2022-10-23T11:08:56.318Z,13.38
2022-10-23T11:11:40.867Z,13.18
2022-10-23T11:14:17.079Z,12.15
2022-10-23T11:16:49.848Z,13.18
2022-10-23T11:19:27.242Z,13.35
2022-10-23T11:22:01.037Z,13.57
2022-10-23T11:25:08.738Z,12.75
2022-10-23T11:27:55.470Z,13.55
2022-10-23T11:30:31.432Z,15.05
2022-10-23T11:33:32.587Z,13.75
2022-10-23T11:36:17.450Z,13.93
2022-10-23T11:38:52.733Z,14.68
2022-10-23T11:41:26.677Z,15.63
2022-10-23T11:44:03.698Z,15.48
2022-10-23T11:46:35.676Z,13.40
2022-10-23T11:49:07.259Z,13.80
2022-10-23T11:51:40.740Z,14.95
2022-10-23T11:54:24.934Z,14.32
2022-10-23T11:56:58.031Z,12.98
2022-10-23T11:59:32.014Z,14.50
2022-10-23T12:02:04.397Z,15.50
2022-10-23T12:04:41.249Z,14.05
2022-10-23T12:07:25.528Z,15.25
2022-10-23T12:09:59.143Z,13.48
2022-10-23T12:12:34.236Z,14.23
2022-10-23T12:15:22.891Z,13.30
2022-10-23T12:17:56.717Z,14.55
2022-10-23T12:20:42.180Z,14.10
2022-10-23T12:23:34.134Z,13.52
2022-10-23T12:26:21.029Z,14.25
2022-10-23T12:29:01.043Z,13.73
2022-10-23T12:31:47.971Z,14.15
2022-10-23T12:34:34.085Z,13.52
2022-10-23T12:37:28.457Z,13.60
2022-10-23T12:39:59.119Z,14.25
2022-10-23T12:42:29.745Z,15.05
2022-10-23T12:45:03.137Z,15.15
2022-10-23T12:50:19.340Z,13.38
2022-10-23T12:52:55.547Z,14.63
2022-10-23T12:55:25.943Z,15.40
2022-10-23T12:57:55.206Z,14.55
2022-10-23T13:00:26.331Z,15.57
2022-10-23T13:03:04.330Z,14.50
2022-10-23T13:05:34.035Z,14.50
2022-10-23T13:08:03.907Z,14.10
2022-10-23T13:10:47.342Z,14.45
2022-10-23T13:13:23.833Z,14.95
2022-10-23T13:15:52.334Z,15.40
2022-10-23T13:18:47.266Z,15.25
2022-10-23T13:21:22.021Z,15.55
2022-10-23T13:23:51.423Z,14.98
2022-10-23T13:26:27.321Z,15.20
2022-10-23T13:28:56.268Z,15.25
2022-10-23T13:34:16.562Z,15.57
2022-10-23T13:36:53.894Z,15.82
2022-10-23T13:39:26.141Z,16.30
2022-10-23T13:42:01.410Z,16.60
2022-10-23T13:44:32.822Z,16.60
2022-10-23T13:47:01.380Z,16.80
2022-10-23T13:49:31.404Z,16.38
2022-10-23T13:52:00.170Z,15.07
2022-10-23T13:54:30.589Z,16.23
2022-10-23T13:56:59.716Z,17.77
2022-10-23T14:02:00.911Z,16.27
2022-10-23T14:04:34.260Z,17.38
2022-10-23T14:07:05.911Z,17.45
2022-10-23T14:09:39.480Z,17.65
2022-10-23T14:12:08.709Z,17.50
2022-10-23T14:14:37.614Z,17.45
2022-10-23T14:17:06.344Z,18.00
2022-10-23T14:22:11.595Z,17.63
2022-10-23T14:24:41.964Z,18.23
2022-10-23T14:27:16.495Z,18.27
2022-10-23T14:29:45.291Z,18.48
2022-10-23T14:32:16.508Z,17.92
2022-10-23T14:34:55.680Z,17.88
2022-10-23T14:37:26.483Z,18.52
2022-10-23T14:39:55.337Z,17.70
2022-10-23T14:42:24.132Z,17.83
2022-10-23T14:44:55.773Z,19.33
2022-10-23T14:47:28.145Z,17.60
2022-10-23T14:49:59.103Z,18.25
2022-10-23T14:52:38.564Z,19.08
2022-10-23T14:55:08.332Z,16.23
2022-10-23T14:57:37.898Z,18.45
2022-10-23T15:00:07.566Z,17.40
2022-10-23T15:02:36.251Z,16.83
2022-10-23T15:05:07.328Z,18.17
2022-10-23T15:07:40.671Z,18.83
2022-10-23T15:10:10.785Z,18.00
2022-10-23T15:12:40.855Z,18.10
2022-10-23T15:15:17.223Z,18.35
2022-10-23T15:17:45.702Z,17.50
2022-10-23T15:20:15.758Z,17.52
2022-10-23T15:22:44.489Z,16.75
2022-10-23T15:27:46.676Z,16.23
2022-10-23T15:30:16.063Z,18.27
2022-10-23T15:32:44.656Z,17.20
2022-10-23T15:35:13.257Z,17.17
2022-10-23T15:37:43.400Z,17.70
2022-10-23T15:40:12.911Z,17.67
2022-10-23T15:42:41.693Z,17.40
2022-10-23T15:45:14.091Z,18.35
2022-10-23T15:47:43.010Z,18.35
2022-10-23T15:50:11.692Z,18.35
2022-10-23T15:52:40.115Z,23.00
2022-10-23T15:55:11.891Z,19.52
2022-10-23T15:57:42.814Z,18.55
2022-10-23T16:00:13.982Z,18.65
2022-10-23T16:02:44.702Z,20.13
2022-10-23T16:05:14.754Z,19.95
2022-10-23T16:07:45.609Z,19.88
2022-10-23T16:10:15.789Z,20.38
2022-10-23T16:12:47.876Z,20.35
2022-10-23T16:15:16.865Z,20.35
2022-10-23T16:22:44.903Z,20.33
2022-10-23T16:25:17.668Z,20.10
2022-10-23T16:27:47.363Z,20.63
2022-10-23T16:30:16.746Z,21.65
2022-10-23T16:32:45.373Z,23.38
2022-10-23T16:35:14.082Z,22.98
2022-10-23T16:37:59.502Z,21.92
2022-10-23T16:40:29.746Z,23.42
2022-10-23T16:43:17.277Z,23.10
2022-10-23T16:46:03.538Z,24.33
2022-10-23T16:48:32.803Z,23.40
2022-10-23T16:51:01.663Z,24.00
2022-10-23T16:56:01.486Z,22.25
2022-10-23T16:58:30.697Z,22.00
2022-10-23T17:01:01.956Z,23.45
2022-10-23T17:03:31.635Z,22.25
2022-10-23T17:06:06.071Z,22.55
2022-10-23T17:08:38.157Z,21.73
2022-10-23T17:11:10.630Z,22.05
2022-10-23T17:13:42.609Z,21.80
2022-10-23T17:16:14.807Z,21.80
2022-10-23T17:18:45.409Z,21.63
2022-10-23T17:21:15.544Z,28.10
2022-10-23T17:23:45.333Z,22.60
2022-10-23T17:26:18.834Z,21.45
2022-10-23T17:28:48.680Z,19.35
2022-10-23T17:31:22.794Z,21.63
2022-10-23T17:33:55.115Z,20.80
2022-10-23T17:36:24.773Z,20.25
2022-10-23T17:38:54.510Z,21.90
2022-10-23T17:41:28.195Z,21.90
2022-10-23T17:43:58.703Z,21.17
2022-10-23T17:46:30.926Z,21.88
2022-10-23T17:51:34.517Z,20.67
2022-10-23T17:54:05.928Z,20.38
2022-10-23T17:56:40.402Z,20.08
2022-10-23T17:59:11.800Z,20.38
2022-10-23T18:01:43.886Z,19.80
2022-10-23T18:04:15.068Z,18.92
2022-10-23T18:06:46.946Z,19.60
2022-10-23T18:09:17.028Z,20.08
2022-10-23T18:11:48.797Z,19.98
2022-10-23T18:14:19.295Z,19.63
2022-10-23T18:16:49.026Z,19.85
2022-10-23T18:19:19.586Z,19.27
2022-10-23T18:22:09.344Z,19.13
2022-10-23T18:24:38.714Z,19.98
2022-10-23T18:27:09.145Z,20.05
2022-10-23T18:29:38.316Z,20.27
2022-10-23T18:32:07.663Z,19.40
2022-10-23T18:34:36.467Z,19.73
2022-10-23T18:37:05.374Z,19.65
2022-10-23T18:39:33.942Z,21.40
2022-10-23T18:42:02.756Z,20.63
2022-10-23T18:44:32.924Z,20.95
2022-10-23T18:47:02.174Z,27.38
2022-10-23T18:49:31.055Z,32.75
2022-10-23T18:54:28.591Z,20.42
2022-10-23T18:59:25.786Z,19.80
2022-10-23T19:01:55.994Z,20.15
2022-10-23T19:04:25.863Z,19.92
2022-10-23T19:09:23.175Z,20.33
2022-10-23T19:14:20.365Z,20.65
2022-10-23T19:17:00.619Z,20.92
2022-10-23T19:19:33.103Z,20.73
2022-10-23T19:22:03.844Z,21.25
2022-10-23T19:24:37.983Z,21.00
2022-10-23T19:27:07.860Z,20.90
2022-10-23T19:29:41.248Z,21.38
2022-10-23T19:32:11.296Z,20.48
2022-10-23T19:34:40.167Z,18.88
2022-10-23T19:37:09.029Z,20.52
2022-10-23T19:39:37.641Z,21.77
2022-10-23T19:42:06.088Z,21.50
2022-10-23T19:44:34.436Z,20.17
2022-10-23T19:47:03.535Z,20.50
2022-10-23T19:49:33.274Z,19.73
2022-10-23T19:52:01.791Z,21.00
2022-10-23T19:54:30.207Z,21.52
2022-10-23T19:56:58.662Z,22.42
2022-10-23T19:59:27.087Z,20.70
2022-10-23T20:01:55.779Z,22.50
2022-10-23T20:04:24.288Z,29.33
2022-10-23T20:06:54.046Z,21.98
2022-10-23T20:09:22.725Z,21.30
2022-10-23T20:11:51.193Z,21.50
2022-10-23T20:14:20.328Z,20.20
2022-10-23T20:16:52.214Z,20.77
2022-10-23T20:19:24.065Z,20.25
2022-10-23T20:21:53.865Z,22.23
2022-10-23T20:24:22.960Z,20.85
2022-10-23T20:26:53.919Z,22.00
2022-10-23T20:29:23.236Z,20.58
2022-10-23T20:31:51.800Z,20.42
2022-10-23T20:34:20.448Z,19.02
2022-10-23T20:36:50.563Z,19.15
2022-10-23T20:39:25.574Z,18.45
2022-10-23T20:41:55.796Z,20.23
2022-10-23T20:44:24.908Z,19.70
2022-10-23T20:46:53.728Z,18.85
2022-10-23T20:49:22.318Z,19.63
2022-10-23T20:51:55.094Z,19.35
2022-10-23T20:54:27.650Z,18.08
2022-10-23T20:56:57.130Z,18.30
2022-10-23T20:59:25.737Z,18.70
2022-10-23T21:01:56.541Z,18.45
2022-10-23T21:04:27.677Z,19.10
2022-10-23T21:07:09.459Z,16.42
2022-10-23T21:09:40.620Z,17.27
2022-10-23T21:12:09.393Z,16.83
2022-10-23T21:14:38.014Z,16.73
2022-10-23T21:17:08.581Z,18.60
2022-10-23T21:19:37.180Z,16.52
2022-10-23T21:22:05.590Z,17.40
2022-10-23T21:24:33.993Z,16.10
2022-10-23T21:27:03.912Z,15.43
2022-10-23T21:29:32.364Z,14.05
2022-10-23T21:32:02.332Z,14.02
2022-10-23T21:34:31.249Z,11.60
2022-10-23T21:37:12.567Z,11.48
2022-10-23T21:39:42.248Z,9.55
2022-10-23T21:44:40.653Z,8.63
2022-10-23T21:47:09.165Z,7.45
2022-10-23T21:49:37.604Z,8.05
2022-10-23T21:52:06.045Z,6.72
2022-10-23T21:54:34.506Z,7.55
2022-10-23T21:57:03.583Z,7.72
2022-10-23T21:59:36.080Z,7.15
2022-10-23T22:02:05.695Z,6.82
2022-10-23T22:04:34.180Z,6.85
2022-10-23T22:07:03.171Z,7.28
2022-10-23T22:09:32.645Z,7.80
2022-10-23T22:12:01.712Z,6.82
2022-10-23T22:14:30.113Z,7.10
2022-10-23T22:16:59.956Z,7.28
2022-10-23T22:19:28.440Z,7.68
2022-10-23T22:21:57.041Z,7.43
2022-10-23T22:24:25.523Z,7.30
2022-10-23T22:26:56.053Z,7.30
2022-10-23T22:29:26.805Z,6.80
2022-10-23T22:31:55.583Z,7.80
2022-10-23T22:34:48.400Z,7.15
2022-10-23T22:37:15.644Z,7.03
2022-10-23T22:39:44.511Z,6.95
2022-10-23T22:44:41.071Z,7.25
2022-10-23T22:47:09.645Z,7.35
2022-10-23T22:49:39.581Z,8.95
2022-10-23T22:52:08.044Z,8.18
2022-10-23T22:54:36.437Z,8.75
2022-10-23T22:57:04.991Z,9.43
2022-10-23T22:59:33.411Z,8.85
2022-10-23T23:02:01.825Z,9.93
2022-10-23T23:04:37.683Z,9.60
2022-10-23T23:07:09.136Z,10.55
2022-10-23T23:09:39.133Z,10.45
2022-10-23T23:12:08.693Z,10.57
2022-10-23T23:14:37.445Z,11.48
2022-10-23T23:19:34.805Z,9.95
2022-10-23T23:22:04.107Z,11.00
2022-10-23T23:24:34.387Z,8.30
2022-10-23T23:27:02.876Z,7.90
2022-10-23T23:29:31.307Z,9.20
2022-10-23T23:31:59.698Z,9.82
2022-10-23T23:34:28.224Z,7.30
2022-10-23T23:36:56.626Z,9.85
2022-10-23T23:39:26.209Z,7.45
2022-10-23T23:41:56.077Z,8.95
2022-10-23T23:44:24.461Z,9.32
2022-10-23T23:46:52.831Z,9.43
2022-10-23T23:49:21.215Z,9.27
2022-10-23T23:51:49.646Z,10.38
2022-10-23T23:54:18.285Z,8.50
2022-10-23T23:56:46.604Z,9.45
2022-10-23T23:59:16.378Z,9.55
